createdAt,value
2022-12-03T00:00:12.813Z,37.87
2022-12-03T00:02:41.549Z,37.23
2022-12-03T00:05:10.519Z,40.73
2022-12-03T00:07:38.383Z,48.63
2022-12-03T00:10:07.820Z,42.00
2022-12-03T00:12:36.831Z,43.10
2022-12-03T00:15:05.274Z,45.20
2022-12-03T00:17:32.965Z,44.33
2022-12-03T00:20:00.735Z,47.60
2022-12-03T00:22:28.451Z,48.67
2022-12-03T00:24:56.464Z,49.37
2022-12-03T00:27:24.300Z,45.30
2022-12-03T00:29:53.318Z,40.03
2022-12-03T00:32:20.978Z,51.07
2022-12-03T00:34:48.621Z,44.23
2022-12-03T00:37:16.331Z,41.50
2022-12-03T00:39:44.016Z,43.37
2022-12-03T00:42:11.706Z,50.50
2022-12-03T00:44:39.380Z,46.63
2022-12-03T00:47:09.476Z,42.00
2022-12-03T00:49:37.325Z,47.67
2022-12-03T00:52:05.085Z,41.20
2022-12-03T00:54:32.718Z,47.30
2022-12-03T00:57:00.356Z,53.87
2022-12-03T00:59:28.293Z,42.23
2022-12-03T01:01:57.430Z,39.93
2022-12-03T01:04:26.749Z,37.67
2022-12-03T01:06:54.502Z,39.70
2022-12-03T01:09:22.323Z,40.50
2022-12-03T01:11:49.985Z,41.70
2022-12-03T01:14:20.006Z,42.43
2022-12-03T01:16:48.227Z,42.50
2022-12-03T01:19:17.271Z,37.43
2022-12-03T01:21:50.723Z,43.43
2022-12-03T01:24:19.616Z,44.70
2022-12-03T01:26:47.394Z,48.00
2022-12-03T01:29:15.598Z,44.67
2022-12-03T01:32:12.310Z,39.90
2022-12-03T01:34:39.969Z,46.93
2022-12-03T01:37:08.968Z,38.83
2022-12-03T01:39:36.796Z,33.77
2022-12-03T01:42:05.548Z,40.10
2022-12-03T01:44:36.153Z,38.70
2022-12-03T01:47:06.827Z,36.40
2022-12-03T01:49:40.811Z,46.30
2022-12-03T01:52:13.090Z,36.77
2022-12-03T01:54:43.386Z,47.33
2022-12-03T02:00:07.584Z,40.97
2022-12-03T02:02:35.849Z,41.60
2022-12-03T02:05:10.682Z,36.57
2022-12-03T02:07:38.658Z,42.93
2022-12-03T02:10:07.591Z,48.10
2022-12-03T02:12:38.758Z,41.43
2022-12-03T02:15:10.103Z,52.70
2022-12-03T02:17:38.678Z,39.30
2022-12-03T02:20:09.745Z,44.00
2022-12-03T02:22:46.417Z,43.10
2022-12-03T02:25:17.352Z,42.70
2022-12-03T02:27:46.255Z,45.30
2022-12-03T02:30:16.724Z,40.47
2022-12-03T02:32:44.592Z,47.60
2022-12-03T02:35:16.996Z,45.43
2022-12-03T02:37:46.947Z,45.03
2022-12-03T02:40:19.772Z,42.80
2022-12-03T02:42:47.511Z,36.97
2022-12-03T02:45:19.863Z,50.07
2022-12-03T02:47:50.716Z,49.97
2022-12-03T02:50:23.295Z,35.50
2022-12-03T02:52:55.358Z,43.43
2022-12-03T02:55:25.343Z,42.93
2022-12-03T02:57:53.553Z,41.03
2022-12-03T03:00:23.401Z,39.63
2022-12-03T03:02:51.556Z,41.37
2022-12-03T03:05:22.505Z,41.07
2022-12-03T03:07:51.855Z,41.60
2022-12-03T03:10:23.959Z,42.30
2022-12-03T03:12:56.016Z,43.20
2022-12-03T03:15:24.590Z,42.80
2022-12-03T03:17:52.897Z,39.07
2022-12-03T03:20:20.995Z,40.07
2022-12-03T03:22:48.640Z,39.90
2022-12-03T03:25:21.010Z,39.07
2022-12-03T03:27:48.854Z,35.53
2022-12-03T03:30:18.079Z,31.80
2022-12-03T03:32:45.892Z,47.70
2022-12-03T03:35:14.636Z,37.93
2022-12-03T03:37:43.150Z,34.57
2022-12-03T03:40:11.662Z,38.20
2022-12-03T03:42:40.040Z,38.90
2022-12-03T03:45:09.144Z,38.70
2022-12-03T03:47:38.523Z,36.90
2022-12-03T03:50:08.647Z,39.63
2022-12-03T03:52:37.408Z,39.00
2022-12-03T03:55:06.319Z,40.50
2022-12-03T03:57:34.339Z,29.87
2022-12-03T04:00:02.161Z,36.70
2022-12-03T04:02:29.824Z,37.80
2022-12-03T04:04:59.015Z,32.40
2022-12-03T04:07:26.813Z,33.50
2022-12-03T04:09:54.510Z,38.47
2022-12-03T04:12:48.014Z,39.37
2022-12-03T04:15:15.805Z,32.57
2022-12-03T04:17:43.452Z,41.53
2022-12-03T04:20:13.757Z,40.10
2022-12-03T04:22:40.429Z,33.43
2022-12-03T04:25:27.303Z,34.13
2022-12-03T04:28:13.077Z,31.83
2022-12-03T04:30:40.973Z,29.50
2022-12-03T04:33:26.139Z,31.50
2022-12-03T04:35:55.256Z,27.17
2022-12-03T04:38:23.047Z,37.17
2022-12-03T04:41:04.082Z,33.20
2022-12-03T04:43:33.976Z,33.70
2022-12-03T04:46:02.359Z,34.47
2022-12-03T04:48:30.129Z,31.10
2022-12-03T04:50:59.195Z,36.97
2022-12-03T04:53:26.963Z,33.87
2022-12-03T04:55:54.619Z,32.63
2022-12-03T04:58:22.373Z,41.17
2022-12-03T05:00:50.149Z,30.27
2022-12-03T05:03:17.820Z,41.87
2022-12-03T05:05:45.468Z,30.80
2022-12-03T05:08:14.453Z,35.30
2022-12-03T05:10:42.201Z,42.97
2022-12-03T05:13:09.867Z,37.97
2022-12-03T05:15:37.564Z,46.83
2022-12-03T05:18:05.558Z,47.87
2022-12-03T05:20:43.238Z,48.27
2022-12-03T05:23:15.187Z,50.90
2022-12-03T05:25:42.839Z,45.53
2022-12-03T05:28:10.550Z,54.07
2022-12-03T05:30:38.245Z,53.83
2022-12-03T05:33:05.962Z,46.13
2022-12-03T05:35:33.712Z,49.87
2022-12-03T05:38:01.386Z,43.87
2022-12-03T05:40:30.400Z,47.57
2022-12-03T05:42:57.247Z,57.80
2022-12-03T05:45:26.456Z,48.20
2022-12-03T05:47:55.094Z,54.13
2022-12-03T05:50:24.846Z,50.47
2022-12-03T05:52:52.838Z,56.03
2022-12-03T05:55:20.604Z,51.77
2022-12-03T05:57:49.729Z,58.00
2022-12-03T06:00:21.099Z,47.83
2022-12-03T06:02:50.932Z,51.70
2022-12-03T06:05:20.291Z,49.97
2022-12-03T06:07:49.076Z,53.80
2022-12-03T06:10:18.736Z,49.63
2022-12-03T06:12:46.516Z,44.10
2022-12-03T06:15:15.968Z,52.43
2022-12-03T06:17:43.643Z,49.27
2022-12-03T06:20:14.443Z,47.00
2022-12-03T06:22:42.199Z,49.57
2022-12-03T06:25:11.181Z,49.23
2022-12-03T06:27:38.914Z,56.70
2022-12-03T06:30:09.406Z,54.23
2022-12-03T06:32:38.417Z,55.00
2022-12-03T06:35:06.843Z,59.67
2022-12-03T06:37:34.771Z,49.73
2022-12-03T06:40:02.460Z,53.37
2022-12-03T06:42:30.151Z,54.97
2022-12-03T06:44:57.820Z,53.63
2022-12-03T06:47:25.526Z,55.30
2022-12-03T06:49:54.626Z,57.00
2022-12-03T06:52:22.335Z,55.90
2022-12-03T06:54:50.015Z,63.10
2022-12-03T06:57:17.781Z,52.77
2022-12-03T06:59:45.571Z,62.27
2022-12-03T07:02:13.350Z,59.60
2022-12-03T07:04:46.074Z,59.90
2022-12-03T07:07:15.592Z,58.97
2022-12-03T07:09:43.395Z,64.23
2022-12-03T07:12:11.071Z,46.53
2022-12-03T07:14:38.739Z,44.33
2022-12-03T07:17:06.421Z,51.30
2022-12-03T07:19:34.137Z,56.87
2022-12-03T07:22:01.804Z,56.13
2022-12-03T07:24:30.905Z,58.50
2022-12-03T07:26:58.564Z,46.73
2022-12-03T07:29:26.285Z,57.60
2022-12-03T07:31:54.019Z,56.37
2022-12-03T07:34:21.897Z,57.40
2022-12-03T07:36:49.631Z,56.13
2022-12-03T07:39:17.364Z,57.33
2022-12-03T07:41:46.410Z,52.37
2022-12-03T07:44:15.022Z,59.63
2022-12-03T07:46:43.776Z,54.33
2022-12-03T07:49:13.156Z,62.93
2022-12-03T07:51:41.228Z,46.27
2022-12-03T07:54:09.382Z,52.10
2022-12-03T07:56:37.086Z,50.60
2022-12-03T07:59:06.200Z,62.60
2022-12-03T08:01:34.284Z,47.07
2022-12-03T08:04:02.105Z,62.30
2022-12-03T08:06:29.804Z,52.23
2022-12-03T08:08:57.527Z,49.57
2022-12-03T08:11:25.280Z,57.10
2022-12-03T08:13:53.048Z,48.83
2022-12-03T08:16:23.222Z,61.00
2022-12-03T08:18:52.097Z,54.07
2022-12-03T08:21:21.586Z,62.20
2022-12-03T08:23:49.320Z,59.63
2022-12-03T08:26:23.000Z,55.83
2022-12-03T08:28:51.334Z,49.80
2022-12-03T08:31:21.209Z,55.20
2022-12-03T08:33:51.935Z,56.87
2022-12-03T08:36:23.231Z,64.93
2022-12-03T08:38:53.203Z,46.43
2022-12-03T08:41:42.173Z,55.03
2022-12-03T08:44:22.176Z,55.63
2022-12-03T08:46:54.209Z,53.77
2022-12-03T08:49:23.739Z,63.93
2022-12-03T08:51:57.153Z,54.33
2022-12-03T08:54:26.791Z,60.77
2022-12-03T08:56:55.207Z,59.77
2022-12-03T08:59:29.470Z,55.80
2022-12-03T09:01:59.382Z,54.93
2022-12-03T09:04:37.796Z,66.93
2022-12-03T09:07:05.873Z,54.37
2022-12-03T09:09:34.562Z,62.43
2022-12-03T09:12:03.261Z,64.97
2022-12-03T09:14:31.170Z,68.40
2022-12-03T09:16:58.836Z,54.47
2022-12-03T09:19:30.817Z,66.13
2022-12-03T09:21:59.792Z,62.27
2022-12-03T09:24:27.451Z,61.93
2022-12-03T09:26:55.243Z,49.93
2022-12-03T09:29:25.328Z,52.27
2022-12-03T09:31:53.344Z,56.47
2022-12-03T09:34:21.200Z,62.40
2022-12-03T09:36:48.943Z,58.23
2022-12-03T09:39:17.926Z,57.47
2022-12-03T09:41:45.644Z,57.10
2022-12-03T09:44:17.493Z,53.73
2022-12-03T09:46:47.631Z,53.43
2022-12-03T09:49:18.719Z,66.00
2022-12-03T09:51:47.433Z,58.70
2022-12-03T09:54:24.976Z,66.33
2022-12-03T09:56:53.658Z,62.17
2022-12-03T09:59:22.798Z,57.07
2022-12-03T10:01:50.707Z,63.63
2022-12-03T10:04:18.606Z,60.47
2022-12-03T10:06:46.533Z,66.13
2022-12-03T10:09:18.190Z,63.43
2022-12-03T10:11:47.236Z,61.27
2022-12-03T10:14:17.764Z,63.33
2022-12-03T10:16:46.436Z,62.77
2022-12-03T10:19:22.822Z,55.13
2022-12-03T10:21:50.616Z,61.30
2022-12-03T10:24:20.630Z,60.73
2022-12-03T10:26:51.805Z,60.60
2022-12-03T10:29:21.180Z,54.30
2022-12-03T10:31:56.366Z,76.03
2022-12-03T10:34:31.416Z,54.33
2022-12-03T10:37:15.332Z,70.47
2022-12-03T10:39:58.524Z,58.93
2022-12-03T10:42:29.205Z,61.07
2022-12-03T10:45:18.340Z,63.27
2022-12-03T10:48:05.124Z,62.43
2022-12-03T10:50:34.003Z,58.07
2022-12-03T10:53:01.768Z,58.73
2022-12-03T10:55:30.476Z,63.43
2022-12-03T10:57:59.828Z,65.53
2022-12-03T11:00:27.659Z,63.47
2022-12-03T11:02:57.208Z,72.93
2022-12-03T11:05:27.758Z,56.37
2022-12-03T11:07:56.278Z,66.57
2022-12-03T11:10:24.483Z,63.97
2022-12-03T11:13:44.188Z,67.27
2022-12-03T11:16:12.581Z,53.87
2022-12-03T11:19:01.579Z,68.17
2022-12-03T11:21:32.033Z,57.93
2022-12-03T11:24:20.965Z,61.67
2022-12-03T11:27:22.068Z,63.67
2022-12-03T11:29:59.946Z,71.60
2022-12-03T11:33:06.274Z,61.33
2022-12-03T11:36:06.605Z,54.40
2022-12-03T11:38:52.309Z,58.27
2022-12-03T11:41:26.381Z,54.93
2022-12-03T11:44:33.750Z,61.53
2022-12-03T11:47:14.976Z,54.10
2022-12-03T11:49:49.932Z,54.10
2022-12-03T11:52:30.323Z,54.80
2022-12-03T11:55:02.792Z,58.20
2022-12-03T11:57:34.643Z,57.77
2022-12-03T12:00:20.501Z,57.30
2022-12-03T12:02:51.098Z,55.33
2022-12-03T12:05:29.042Z,51.67
2022-12-03T12:07:57.717Z,55.30
2022-12-03T12:10:46.605Z,51.77
2022-12-03T12:13:50.261Z,51.47
2022-12-03T12:16:45.843Z,52.83
2022-12-03T12:19:38.244Z,55.40
2022-12-03T12:22:33.343Z,54.07
2022-12-03T12:25:02.954Z,56.10
2022-12-03T12:27:34.573Z,52.57
2022-12-03T12:30:04.462Z,56.63
2022-12-03T12:32:34.419Z,57.03
2022-12-03T12:35:16.082Z,50.87
2022-12-03T12:37:53.523Z,63.63
2022-12-03T12:40:28.751Z,51.37
2022-12-03T12:42:58.257Z,48.67
2022-12-03T12:45:27.725Z,56.20
2022-12-03T12:48:03.465Z,58.33
2022-12-03T12:50:33.439Z,56.87
2022-12-03T12:53:09.388Z,60.33
2022-12-03T12:55:38.819Z,50.53
2022-12-03T12:58:14.807Z,48.83
2022-12-03T13:00:43.757Z,49.40
2022-12-03T13:03:12.927Z,50.70
2022-12-03T13:05:44.546Z,58.63
2022-12-03T13:08:23.018Z,55.40
2022-12-03T13:10:51.676Z,56.77
2022-12-03T13:13:41.661Z,60.33
2022-12-03T13:16:19.427Z,58.17
2022-12-03T13:18:50.109Z,57.80
2022-12-03T13:21:24.655Z,54.10
2022-12-03T13:23:55.329Z,58.80
2022-12-03T13:26:38.756Z,62.20
2022-12-03T13:29:12.101Z,49.87
2022-12-03T13:31:43.841Z,50.97
2022-12-03T13:34:19.895Z,55.10
2022-12-03T13:36:56.987Z,61.43
2022-12-03T13:39:30.438Z,59.87
2022-12-03T13:42:17.736Z,63.67
2022-12-03T13:44:48.750Z,65.87
2022-12-03T13:47:19.727Z,53.37
2022-12-03T13:49:52.216Z,61.47
2022-12-03T13:52:24.354Z,61.07
2022-12-03T13:54:54.717Z,64.33
2022-12-03T13:57:22.979Z,59.77
2022-12-03T13:59:51.528Z,62.63
2022-12-03T14:02:20.100Z,55.33
2022-12-03T14:04:48.604Z,56.60
2022-12-03T14:07:17.456Z,54.53
2022-12-03T14:09:46.590Z,64.40
2022-12-03T14:12:26.588Z,60.93
2022-12-03T14:14:55.012Z,62.07
2022-12-03T14:17:22.807Z,64.97
2022-12-03T14:19:50.699Z,57.87
2022-12-03T14:22:19.410Z,57.40
2022-12-03T14:24:48.752Z,61.13
2022-12-03T14:27:16.859Z,49.80
2022-12-03T14:29:44.771Z,55.90
2022-12-03T14:32:12.898Z,63.43
2022-12-03T14:34:58.821Z,64.73
2022-12-03T14:37:27.673Z,54.77
2022-12-03T14:39:57.987Z,61.43
2022-12-03T14:42:26.177Z,60.67
2022-12-03T14:44:55.012Z,60.63
2022-12-03T14:47:25.076Z,55.53
2022-12-03T14:49:54.189Z,53.67
2022-12-03T14:52:22.879Z,59.57
2022-12-03T14:54:50.917Z,62.13
2022-12-03T14:57:20.313Z,64.03
2022-12-03T14:59:48.159Z,61.87
2022-12-03T15:02:16.063Z,58.57
2022-12-03T15:04:44.477Z,56.30
2022-12-03T15:07:12.479Z,56.87
2022-12-03T15:09:40.229Z,60.40
2022-12-03T15:12:08.512Z,57.37
2022-12-03T15:14:38.085Z,55.10
2022-12-03T15:17:05.916Z,64.13
2022-12-03T15:19:34.071Z,56.40
2022-12-03T15:22:01.842Z,65.97
2022-12-03T15:24:29.647Z,60.83
2022-12-03T15:26:57.352Z,61.00
2022-12-03T15:29:25.195Z,57.97
2022-12-03T15:31:54.315Z,61.00
2022-12-03T15:34:23.019Z,52.70
2022-12-03T15:36:51.333Z,61.67
2022-12-03T15:39:19.028Z,70.27
2022-12-03T15:41:46.731Z,56.50
2022-12-03T15:44:14.452Z,58.47
2022-12-03T15:46:42.230Z,58.70
2022-12-03T15:49:11.295Z,62.87
2022-12-03T15:51:38.967Z,60.30
2022-12-03T15:54:07.169Z,56.33
2022-12-03T15:56:37.402Z,60.03
2022-12-03T15:59:05.348Z,55.87
2022-12-03T16:01:33.168Z,64.93
2022-12-03T16:04:00.955Z,58.93
2022-12-03T16:06:29.952Z,57.33
2022-12-03T16:08:57.616Z,50.43
2022-12-03T16:11:25.294Z,53.00
2022-12-03T16:13:52.918Z,52.63
2022-12-03T16:16:23.191Z,54.63
2022-12-03T16:18:51.222Z,59.17
2022-12-03T16:21:22.027Z,54.57
2022-12-03T16:23:55.467Z,59.57
2022-12-03T16:26:23.679Z,61.13
2022-12-03T16:28:51.465Z,56.27
2022-12-03T16:31:20.205Z,47.30
2022-12-03T16:33:48.559Z,64.77
2022-12-03T16:36:17.124Z,54.97
2022-12-03T16:38:46.904Z,61.80
2022-12-03T16:41:15.965Z,49.83
2022-12-03T16:43:46.057Z,62.80
2022-12-03T16:46:26.152Z,51.47
2022-12-03T16:48:55.205Z,55.27
2022-12-03T16:51:23.243Z,53.10
2022-12-03T16:53:50.968Z,57.30
2022-12-03T16:56:20.309Z,56.00
2022-12-03T16:58:48.166Z,61.77
2022-12-03T17:01:15.953Z,53.10
2022-12-03T17:03:43.753Z,51.43
2022-12-03T17:06:11.491Z,63.30
2022-12-03T17:08:41.088Z,57.43
2022-12-03T17:11:12.240Z,58.30
2022-12-03T17:13:41.389Z,61.47
2022-12-03T17:16:09.358Z,61.07
2022-12-03T17:18:37.057Z,56.97
2022-12-03T17:21:05.079Z,60.03
2022-12-03T17:23:32.843Z,63.40
2022-12-03T17:26:00.740Z,54.93
2022-12-03T17:28:28.604Z,59.17
2022-12-03T17:30:57.727Z,60.37
2022-12-03T17:33:25.433Z,58.13
2022-12-03T17:35:53.213Z,52.73
2022-12-03T17:38:20.886Z,62.13
2022-12-03T17:40:48.541Z,62.77
2022-12-03T17:43:16.201Z,58.87
2022-12-03T17:45:44.235Z,54.70
2022-12-03T17:48:13.385Z,50.13
2022-12-03T17:50:41.051Z,61.93
2022-12-03T17:53:10.371Z,57.67
2022-12-03T17:55:44.627Z,56.77
2022-12-03T17:58:12.897Z,58.70
2022-12-03T18:00:40.850Z,48.87
2022-12-03T18:03:08.526Z,58.83
2022-12-03T18:05:37.625Z,50.87
2022-12-03T18:08:05.875Z,55.53
2022-12-03T18:10:33.611Z,50.60
2022-12-03T18:13:02.350Z,57.90
2022-12-03T18:15:30.790Z,60.40
2022-12-03T18:17:58.528Z,61.07
2022-12-03T18:20:27.568Z,56.60
2022-12-03T18:22:58.302Z,58.20
2022-12-03T18:25:26.288Z,52.90
2022-12-03T18:27:54.012Z,55.53
2022-12-03T18:30:22.053Z,56.27
2022-12-03T18:32:50.597Z,52.70
2022-12-03T18:35:18.367Z,53.97
2022-12-03T18:37:46.113Z,50.57
2022-12-03T18:40:22.871Z,56.23
2022-12-03T18:42:50.800Z,48.30
2022-12-03T18:45:18.714Z,54.27
2022-12-03T18:47:46.642Z,59.87
2022-12-03T18:50:14.643Z,58.37
2022-12-03T18:52:42.411Z,54.37
2022-12-03T18:55:16.023Z,50.67
2022-12-03T18:57:45.033Z,44.13
2022-12-03T19:00:14.236Z,50.63
2022-12-03T19:05:29.968Z,52.67
2022-12-03T19:07:58.057Z,56.40
2022-12-03T19:10:26.538Z,60.67
2022-12-03T19:12:55.613Z,53.70
2022-12-03T19:15:23.987Z,51.67
2022-12-03T19:17:52.039Z,54.10
2022-12-03T19:20:19.914Z,56.30
2022-12-03T19:22:47.650Z,50.90
2022-12-03T19:25:15.588Z,55.80
2022-12-03T19:27:43.308Z,48.97
2022-12-03T19:30:13.409Z,54.47
2022-12-03T19:32:43.286Z,64.43
2022-12-03T19:35:11.206Z,58.00
2022-12-03T19:37:39.136Z,50.47
2022-12-03T19:40:10.089Z,53.67
2022-12-03T19:42:39.524Z,49.87
2022-12-03T19:45:07.963Z,58.97
2022-12-03T19:47:37.952Z,51.43
2022-12-03T19:50:07.214Z,49.50
2022-12-03T19:52:36.263Z,51.77
2022-12-03T19:55:04.974Z,76.33
2022-12-03T19:57:32.682Z,81.97
2022-12-03T20:00:01.090Z,58.33
2022-12-03T20:02:29.371Z,55.07
2022-12-03T20:04:58.568Z,51.80
2022-12-03T20:07:26.346Z,65.93
2022-12-03T20:09:54.497Z,62.17
2022-12-03T20:12:22.424Z,50.90
2022-12-03T20:14:51.553Z,58.80
2022-12-03T20:17:19.338Z,55.90
2022-12-03T20:19:47.187Z,58.60
2022-12-03T20:22:16.395Z,52.63
2022-12-03T20:24:44.052Z,54.07
2022-12-03T20:27:11.711Z,50.70
2022-12-03T20:29:39.466Z,54.03
2022-12-03T20:32:07.982Z,51.57
2022-12-03T20:34:36.375Z,55.93
2022-12-03T20:37:04.397Z,46.37
2022-12-03T20:39:33.716Z,57.30
2022-12-03T20:42:01.600Z,58.03
2022-12-03T20:44:29.351Z,51.83
2022-12-03T20:46:57.044Z,59.60
2022-12-03T20:49:24.747Z,49.67
2022-12-03T20:51:52.393Z,55.60
2022-12-03T20:54:20.058Z,58.23
2022-12-03T20:56:49.091Z,53.00
2022-12-03T20:59:18.507Z,50.80
2022-12-03T21:01:46.337Z,60.17
2022-12-03T21:04:15.937Z,60.63
2022-12-03T21:06:43.680Z,63.93
2022-12-03T21:09:13.110Z,61.80
2022-12-03T21:11:42.344Z,60.87
2022-12-03T21:14:12.352Z,60.77
2022-12-03T21:19:30.284Z,61.73
2022-12-03T21:21:57.995Z,48.37
2022-12-03T21:24:25.819Z,58.30
2022-12-03T21:26:53.472Z,63.30
2022-12-03T21:29:22.668Z,68.53
2022-12-03T21:31:50.558Z,63.50
2022-12-03T21:34:18.265Z,61.23
2022-12-03T21:36:45.989Z,55.07
2022-12-03T21:39:13.720Z,57.63
2022-12-03T21:41:41.341Z,50.80
2022-12-03T21:44:30.504Z,57.03
2022-12-03T21:47:09.407Z,60.30
2022-12-03T21:49:40.713Z,63.03
2022-12-03T21:52:08.360Z,61.20
2022-12-03T21:54:35.991Z,62.03
2022-12-03T21:57:03.632Z,49.13
2022-12-03T21:59:32.999Z,58.60
2022-12-03T22:02:00.781Z,66.17
2022-12-03T22:04:28.475Z,56.60
2022-12-03T22:06:56.254Z,57.53
2022-12-03T22:09:26.711Z,60.23
2022-12-03T22:11:56.718Z,55.93
2022-12-03T22:14:24.363Z,57.77
2022-12-03T22:16:53.314Z,62.83
2022-12-03T22:19:22.997Z,65.27
2022-12-03T22:21:50.699Z,64.20
2022-12-03T22:24:19.449Z,64.47
2022-12-03T22:26:47.902Z,63.10
2022-12-03T22:29:16.134Z,55.67
2022-12-03T22:31:45.842Z,65.57
2022-12-03T22:34:14.823Z,59.57
2022-12-03T22:36:42.431Z,59.73
2022-12-03T22:39:10.105Z,56.37
2022-12-03T22:41:37.700Z,49.77
2022-12-03T22:44:05.548Z,59.23
2022-12-03T22:46:33.268Z,54.13
2022-12-03T22:49:06.663Z,63.27
2022-12-03T22:51:36.883Z,58.90
2022-12-03T22:54:05.423Z,67.73
2022-12-03T22:56:33.636Z,62.00
2022-12-03T22:59:01.357Z,65.83
2022-12-03T23:01:30.650Z,52.33
2022-12-03T23:03:58.787Z,70.93
2022-12-03T23:06:27.349Z,61.40
2022-12-03T23:08:56.671Z,58.87
2022-12-03T23:11:24.826Z,52.03
2022-12-03T23:13:53.116Z,55.17
2022-12-03T23:16:22.937Z,64.83
2022-12-03T23:18:50.876Z,64.60
2022-12-03T23:21:25.404Z,62.73
2022-12-03T23:23:58.059Z,61.20
2022-12-03T23:26:26.255Z,57.73
2022-12-03T23:28:53.999Z,59.70
2022-12-03T23:31:23.963Z,64.83
2022-12-03T23:33:52.504Z,61.57
2022-12-03T23:36:21.777Z,67.90
2022-12-03T23:38:49.875Z,59.00
2022-12-03T23:41:20.760Z,65.83
2022-12-03T23:43:48.710Z,67.43
2022-12-03T23:46:18.185Z,63.07
2022-12-03T23:48:46.570Z,60.20
2022-12-03T23:51:15.736Z,60.73
2022-12-03T23:53:43.436Z,63.13
2022-12-03T23:56:13.926Z,72.77
2022-12-03T23:58:43.351Z,58.37
